Time;durP1;ratioP1;P1;durP2;ratioP2;P2;SDS_P1;SDS_P2;PMS_P1;PMS_P2;Temp;Humidity;BMP_temperature;BMP_pressure;BME280_temperature;BME280_humidity;BME280_pressure;Samples;Min_cycle;Max_cycle;Signal;HPM_P1;HPM_P2
2021/12/30 00:00:25;;;;;;;65.03;13.00;;;;;;;-145.18;100.00;47500.41;5066752;28;20064;-70
2021/12/30 00:02:50;;;;;;;64.27;12.57;;;;;;;-145.18;100.00;47500.41;5066720;28;20486;-70
2021/12/30 00:05:16;;;;;;;60.87;10.77;;;;;;;-145.18;100.00;47496.50;5066850;28;20036;-70
2021/12/30 00:07:43;;;;;;;46.97;9.00;;;;;;;-145.18;100.00;47496.50;5067034;28;20086;-71
2021/12/30 00:10:09;;;;;;;52.13;9.53;;;;;;;-145.18;100.00;47496.50;5067202;28;20114;-70
2021/12/30 00:12:35;;;;;;;70.47;11.17;;;;;;;-145.18;100.00;47490.66;5066792;28;20040;-70
2021/12/30 00:15:01;;;;;;;85.40;11.27;;;;;;;-145.18;100.00;47494.56;5066882;28;20229;-70
2021/12/30 00:17:26;;;;;;;53.27;10.60;;;;;;;-145.18;100.00;47492.59;5066370;28;20029;-70
2021/12/30 00:19:52;;;;;;;64.87;11.47;;;;;;;-145.18;100.00;47506.28;5066829;28;20035;-70
2021/12/30 00:22:17;;;;;;;50.73;10.57;;;;;;;-145.18;100.00;47484.78;5066552;28;20047;-70
2021/12/30 00:24:43;;;;;;;75.37;12.37;;;;;;;-145.18;100.00;47490.66;5067069;28;20052;-70
2021/12/30 00:27:08;;;;;;;52.80;11.63;;;;;;;-145.18;100.00;47459.41;5066922;28;20098;-70
2021/12/30 00:29:34;;;;;;;59.23;12.03;;;;;;;-145.18;100.00;47480.88;5048854;28;20083;-70
2021/12/30 00:31:59;;;;;;;50.97;12.37;;;;;;;-145.18;100.00;47471.13;5066377;28;20070;-70
2021/12/30 00:34:25;;;;;;;58.07;10.40;;;;;;;-145.18;100.00;47498.47;5066606;28;20051;-70
2021/12/30 00:36:50;;;;;;;62.63;12.83;;;;;;;-145.18;100.00;47449.63;5066245;28;20037;-70
2021/12/30 00:39:16;;;;;;;72.20;13.67;;;;;;;-145.18;100.00;47492.59;5067423;28;20109;-70
2021/12/30 00:41:41;;;;;;;73.87;14.70;;;;;;;-145.18;100.00;47480.88;5066417;28;20044;-70
2021/12/30 00:44:07;;;;;;;58.57;13.80;;;;;;;-145.18;100.00;47488.69;5066600;28;20041;-70
2021/12/30 00:46:32;;;;;;;73.63;14.63;;;;;;;-145.18;100.00;47527.78;5066051;28;20068;-70
2021/12/30 00:48:57;;;;;;;67.03;13.73;;;;;;;-145.18;100.00;47486.75;5066291;28;20119;-70
2021/12/30 00:51:23;;;;;;;70.03;15.07;;;;;;;-145.18;100.00;47478.94;5066213;28;20078;-70
2021/12/30 00:53:48;;;;;;;61.10;15.00;;;;;;;-145.18;100.00;47480.88;5067183;28;20705;-70
2021/12/30 00:56:14;;;;;;;62.40;13.37;;;;;;;-145.18;100.00;47473.06;5066213;28;20040;-70
2021/12/30 00:58:39;;;;;;;66.73;14.97;;;;;;;-145.18;100.00;47484.78;5068843;28;20085;-70
2021/12/30 01:01:05;;;;;;;47.87;12.67;;;;;;;-145.18;100.00;47482.84;5069973;28;20036;-70
2021/12/30 01:03:31;;;;;;;51.57;12.07;;;;;;;-145.18;100.00;47478.94;5069903;28;20127;-70
2021/12/30 01:05:57;;;;;;;72.03;13.97;;;;;;;-145.18;100.00;47465.25;4973736;28;20557;-69
2021/12/30 01:08:22;;;;;;;70.37;13.13;;;;;;;-145.18;100.00;47471.13;4949625;28;20051;-70
2021/12/30 01:10:48;;;;;;;60.33;13.03;;;;;;;-145.18;100.00;47480.88;4948791;28;20039;-70
2021/12/30 01:13:23;;;;;;;77.17;15.17;;;;;;;-145.18;100.00;47459.41;4948907;28;20043;-70
2021/12/30 01:16:02;;;;;;;64.95;13.98;;;;;;;-145.18;100.00;47500.41;4948853;28;20492;-70
2021/12/30 01:18:40;;;;;;;78.33;14.30;;;;;;;-145.18;100.00;47492.59;4948670;28;20512;-70
2021/12/30 01:21:09;;;;;;;84.03;15.30;;;;;;;-145.18;100.00;47488.69;4948922;28;20393;-70
2021/12/30 01:23:35;;;;;;;69.73;16.80;;;;;;;-145.18;100.00;47488.69;4948972;28;20058;-70
2021/12/30 01:26:00;;;;;;;67.40;13.60;;;;;;;-145.18;100.00;47512.16;4949038;28;20043;-70
2021/12/30 01:28:27;;;;;;;75.23;16.07;;;;;;;-145.18;100.00;47512.16;4948587;28;20105;-70
2021/12/30 01:30:53;;;;;;;77.37;17.27;;;;;;;-145.18;100.00;47498.47;4948885;28;20031;-70
2021/12/30 01:33:18;;;;;;;76.00;15.43;;;;;;;-145.18;100.00;47500.41;4947193;28;20516;-70
2021/12/30 01:35:44;;;;;;;77.87;16.67;;;;;;;-145.18;100.00;47486.75;4948063;28;20074;-70
2021/12/30 01:38:12;;;;;;;68.90;16.00;;;;;;;-145.18;100.00;47502.38;4948978;28;20165;-70
2021/12/30 01:40:40;;;;;;;76.23;15.17;;;;;;;-145.18;100.00;47486.75;4948722;28;20035;-70
2021/12/30 01:43:07;;;;;;;57.43;15.63;;;;;;;-145.18;100.00;47496.50;4948234;28;20039;-70
2021/12/30 01:45:33;;;;;;;67.80;16.57;;;;;;;-145.18;100.00;47498.47;4947125;28;20086;-70
2021/12/30 01:47:59;;;;;;;59.73;12.87;;;;;;;-145.18;100.00;47486.75;4963456;28;20039;-70
2021/12/30 01:50:25;;;;;;;58.43;14.73;;;;;;;-145.18;100.00;47488.69;4948373;28;20432;-70
2021/12/30 01:52:52;;;;;;;51.83;14.40;;;;;;;-145.18;100.00;47488.69;4948306;28;20122;-70
2021/12/30 01:55:21;;;;;;;59.17;14.87;;;;;;;-145.18;100.00;47476.97;4948445;28;20407;-70
2021/12/30 01:57:47;;;;;;;56.33;15.40;;;;;;;-145.18;100.00;47480.88;4948677;28;20043;-70
2021/12/30 02:00:16;;;;;;;55.87;15.00;;;;;;;-145.18;100.00;47490.66;4948171;28;20443;-70
2021/12/30 02:02:42;;;;;;;64.23;16.33;;;;;;;-145.18;100.00;47476.97;4948345;28;20055;-70
2021/12/30 02:05:08;;;;;;;54.57;15.37;;;;;;;-145.18;100.00;47484.78;4948122;28;20051;-70
2021/12/30 02:07:34;;;;;;;54.43;15.23;;;;;;;-145.18;100.00;47504.31;4948410;28;20039;-70
2021/12/30 02:10:01;;;;;;;54.03;15.00;;;;;;;-145.18;100.00;47482.84;4947506;28;20063;-70
2021/12/30 02:12:30;;;;;;;49.33;14.50;;;;;;;-145.18;100.00;47484.78;4947564;28;20043;-70
2021/12/30 02:14:56;;;;;;;47.77;14.20;;;;;;;-145.18;100.00;47482.84;4948122;28;20061;-70
2021/12/30 02:17:21;;;;;;;47.70;14.93;;;;;;;-145.18;100.00;47494.56;4948365;28;20048;-70
2021/12/30 02:19:47;;;;;;;46.70;15.07;;;;;;;-145.18;100.00;47453.53;4948238;28;20089;-70
2021/12/30 02:22:12;;;;;;;45.07;14.17;;;;;;;-145.18;100.00;47457.44;4947826;28;20042;-70
2021/12/30 02:24:49;;;;;;;45.80;15.43;;;;;;;-145.18;100.00;47480.88;4948018;28;20043;-70
2021/12/30 02:27:16;;;;;;;40.13;13.87;;;;;;;-145.18;100.00;47469.16;4947492;28;20066;-70
2021/12/30 02:29:41;;;;;;;44.17;14.17;;;;;;;-145.18;100.00;47484.78;4948329;28;20047;-70
2021/12/30 02:32:07;;;;;;;36.03;14.97;;;;;;;-145.18;100.00;47484.78;4947728;28;20051;-70
2021/12/30 02:34:33;;;;;;;40.07;14.13;;;;;;;-145.18;100.00;47486.75;4947643;28;20438;-70
2021/12/30 02:36:58;;;;;;;30.57;13.47;;;;;;;-145.18;100.00;47469.16;4962865;28;20492;-70
2021/12/30 02:39:24;;;;;;;34.17;14.83;;;;;;;-145.18;100.00;47488.69;4947745;28;20408;-70
2021/12/30 02:41:51;;;;;;;32.53;15.33;;;;;;;-145.18;100.00;47480.88;4947567;28;20040;-72
2021/12/30 02:44:17;;;;;;;32.43;17.17;;;;;;;-145.18;100.00;47478.94;4947865;28;20438;-70
2021/12/30 02:46:43;;;;;;;28.90;16.67;;;;;;;-145.18;100.00;47455.47;4947551;28;20081;-70
2021/12/30 02:49:10;;;;;;;31.07;16.27;;;;;;;-145.18;100.00;47471.13;4947573;28;20035;-70
2021/12/30 02:51:36;;;;;;;29.63;16.07;;;;;;;-145.18;100.00;47459.41;4947514;28;20554;-70
2021/12/30 02:54:03;;;;;;;28.80;15.37;;;;;;;-145.18;100.00;47467.22;4948266;28;20036;-70
2021/12/30 02:56:31;;;;;;;31.73;15.67;;;;;;;-145.18;100.00;47437.91;4946618;28;20050;-69
2021/12/30 02:58:57;;;;;;;29.77;16.37;;;;;;;-145.18;100.00;47443.75;4947520;28;20054;-69
2021/12/30 03:01:29;;;;;;;31.50;15.93;;;;;;;-145.18;100.00;47420.31;4947177;28;20074;-69
2021/12/30 03:04:00;;;;;;;29.63;15.80;;;;;;;-145.18;100.00;47394.91;4947787;28;20054;-69
2021/12/30 03:06:26;;;;;;;29.23;14.20;;;;;;;-145.18;100.00;47377.34;4946984;28;20043;-69
2021/12/30 03:08:52;;;;;;;25.07;13.73;;;;;;;-145.18;100.00;47328.50;4947533;28;20492;-70
2021/12/30 03:11:19;;;;;;;24.87;13.53;;;;;;;-145.18;100.00;47310.91;4946849;28;20449;-70
2021/12/30 03:13:45;;;;;;;21.17;11.20;;;;;;;-145.18;100.00;47242.53;4947370;28;20638;-70
2021/12/30 03:16:14;;;;;;;21.07;10.53;;;;;;;-145.18;100.00;47168.28;4946494;28;20044;-70
2021/12/30 03:18:43;;;;;;;15.30;10.00;;;;;;;-145.18;100.00;47156.56;4947068;28;20050;-70
2021/12/30 03:21:10;;;;;;;18.80;10.17;;;;;;;-145.18;100.00;47082.34;4947215;28;20046;-70
2021/12/30 03:23:35;;;;;;;17.17;9.70;;;;;;;-145.18;100.00;47062.81;4947038;28;20078;-70
2021/12/30 03:26:02;;;;;;;15.30;9.27;;;;;;;-145.18;100.00;47084.28;4947131;28;20071;-70
2021/12/30 03:28:29;;;;;;;14.40;8.57;;;;;;;-145.18;100.00;47039.34;4947113;28;20050;-70
2021/12/30 03:30:58;;;;;;;15.63;8.30;;;;;;;-145.18;100.00;47043.28;4947052;28;20067;-70
2021/12/30 03:33:27;;;;;;;15.47;7.97;;;;;;;-145.18;100.00;47008.09;4946580;28;20055;-70
2021/12/30 03:35:52;;;;;;;15.30;9.60;;;;;;;-145.18;100.00;47002.25;4961412;28;20377;-70
2021/12/30 03:38:18;;;;;;;15.73;9.73;;;;;;;-145.18;100.00;47010.06;4947603;28;20105;-70
2021/12/30 03:40:43;;;;;;;18.37;10.90;;;;;;;-145.18;100.00;46969.03;4946612;28;20047;-69
2021/12/30 03:43:09;;;;;;;19.87;12.17;;;;;;;-145.18;100.00;46953.41;4946385;28;20093;-70
2021/12/30 03:45:34;;;;;;;22.10;12.97;;;;;;;-145.18;100.00;46976.84;4946342;28;20051;-70
2021/12/30 03:48:00;;;;;;;19.93;13.23;;;;;;;-145.18;100.00;46947.53;4946838;28;20035;-70
2021/12/30 03:50:29;;;;;;;20.27;11.93;;;;;;;-145.18;100.00;46978.81;4946620;28;20461;-69
2021/12/30 03:52:59;;;;;;;20.37;12.93;;;;;;;-145.18;100.00;46982.72;4946575;28;20043;-70
2021/12/30 03:55:29;;;;;;;22.43;12.20;;;;;;;-145.18;100.00;46945.59;4946253;28;20058;-70
2021/12/30 03:57:55;;;;;;;21.80;12.60;;;;;;;-145.18;100.00;46935.81;4946860;28;20492;-70
2021/12/30 04:00:22;;;;;;;20.83;13.13;;;;;;;-145.18;100.00;46908.47;4947158;28;20062;-69
2021/12/30 04:02:47;;;;;;;22.20;12.83;;;;;;;-145.18;100.00;46916.28;4946189;28;20066;-69
2021/12/30 04:05:13;;;;;;;25.23;14.13;;;;;;;-145.18;100.00;46933.88;4946665;28;20495;-69
2021/12/30 04:07:39;;;;;;;20.33;12.07;;;;;;;-145.18;100.00;46918.25;4946428;28;20054;-69
2021/12/30 04:10:08;;;;;;;19.43;11.03;;;;;;;-145.18;100.00;46965.13;4946478;28;20039;-70
2021/12/30 04:12:34;;;;;;;20.40;10.67;;;;;;;-145.18;100.00;46951.44;4945790;28;20126;-69
2021/12/30 04:15:00;;;;;;;18.77;10.50;;;;;;;-145.18;100.00;46969.03;4946683;28;20122;-70
2021/12/30 04:17:26;;;;;;;18.73;12.13;;;;;;;-145.18;100.00;46967.09;4946605;28;20043;-69
2021/12/30 04:19:51;;;;;;;19.93;12.50;;;;;;;-145.18;100.00;47017.88;4946745;28;20105;-70
2021/12/30 04:22:18;;;;;;;21.03;13.47;;;;;;;-145.18;100.00;46994.44;4946168;28;20047;-70
2021/12/30 04:24:47;;;;;;;20.03;13.00;;;;;;;-145.18;100.00;46982.72;4946415;28;20070;-70
2021/12/30 04:27:13;;;;;;;21.37;13.83;;;;;;;-145.18;100.00;46992.47;4946099;28;20118;-70
2021/12/30 04:29:39;;;;;;;24.20;16.13;;;;;;;-145.18;100.00;46969.03;4945996;28;20039;-69
2021/12/30 04:32:05;;;;;;;30.73;19.37;;;;;;;-145.18;100.00;46920.19;4946443;28;20050;-69
2021/12/30 04:34:30;;;;;;;39.83;19.73;;;;;;;-145.18;100.00;46941.69;4950015;28;20054;-69
2021/12/30 04:36:58;;;;;;;30.57;18.40;;;;;;;-145.18;100.00;46961.22;4949085;28;20126;-69
2021/12/30 04:39:29;;;;;;;27.17;16.87;;;;;;;-145.18;100.00;46998.34;4949500;28;20058;-69
2021/12/30 04:41:58;;;;;;;16.33;11.43;;;;;;;-145.18;100.00;47031.53;4949261;28;20047;-69
2021/12/30 04:44:24;;;;;;;19.53;12.07;;;;;;;-145.18;100.00;47096.00;4949218;28;20075;-69
2021/12/30 04:46:50;;;;;;;14.33;9.93;;;;;;;-145.18;100.00;47156.56;4948043;28;20126;-69
2021/12/30 04:49:15;;;;;;;13.57;5.97;;;;;;;-145.18;100.00;47285.50;4963915;28;20126;-69
2021/12/30 04:51:40;;;;;;;10.87;4.73;;;;;;;-145.18;100.00;47371.47;4949241;28;20311;-70
2021/12/30 04:54:06;;;;;;;12.63;4.77;;;;;;;-145.18;100.00;47402.72;4950129;28;20035;-69
2021/12/30 04:56:31;;;;;;;7.73;3.67;;;;;;;-145.18;100.00;47432.03;4948812;28;20126;-70
2021/12/30 04:58:57;;;;;;;9.57;4.00;;;;;;;-145.18;100.00;47426.19;4949476;28;20108;-70
2021/12/30 05:01:22;;;;;;;6.63;3.47;;;;;;;-145.18;100.00;47418.38;4948969;28;20039;-70
2021/12/30 05:03:48;;;;;;;13.40;4.47;;;;;;;-145.18;100.00;47437.91;4949006;28;20049;-70
2021/12/30 05:06:13;;;;;;;11.70;5.20;;;;;;;-145.18;100.00;47435.94;4949152;28;20485;-70
2021/12/30 05:08:39;;;;;;;9.13;4.27;;;;;;;-145.18;100.00;47459.41;4949583;28;20124;-69
2021/12/30 05:11:05;;;;;;;14.47;6.93;;;;;;;-145.18;100.00;47443.75;4948691;28;20136;-69
2021/12/30 05:13:31;;;;;;;13.07;6.43;;;;;;;-145.18;100.00;47459.41;4948866;28;20408;-69
2021/12/30 05:15:57;;;;;;;11.40;6.57;;;;;;;-145.18;100.00;47469.16;4948995;28;20125;-70
2021/12/30 05:18:30;;;;;;;16.40;6.90;;;;;;;-145.18;100.00;47473.06;4949072;28;20058;-70
2021/12/30 05:20:56;;;;;;;16.37;8.30;;;;;;;-145.18;100.00;47459.41;4948718;28;20473;-70
2021/12/30 05:23:21;;;;;;;17.30;10.07;;;;;;;-145.18;100.00;47488.69;4948822;28;20133;-69
2021/12/30 05:25:46;;;;;;;16.77;10.67;;;;;;;-145.18;100.00;47496.50;4948941;28;20050;-70
2021/12/30 05:28:12;;;;;;;19.67;12.67;;;;;;;-145.18;100.00;47457.44;4949501;28;20032;-69
2021/12/30 05:30:37;;;;;;;18.17;11.57;;;;;;;-145.18;100.00;47461.34;4948649;28;20381;-69
2021/12/30 05:33:03;;;;;;;17.97;10.47;;;;;;;-145.18;100.00;47478.94;4948385;28;20070;-69
2021/12/30 05:35:28;;;;;;;11.93;8.00;;;;;;;-145.18;100.00;47488.69;4948721;28;20097;-70
2021/12/30 05:37:55;;;;;;;8.50;5.07;;;;;;;-145.18;100.00;47469.16;4948708;28;20035;-70
2021/12/30 05:40:21;;;;;;;8.13;5.33;;;;;;;-145.18;100.00;47455.47;4948544;28;20043;-70
2021/12/30 05:42:47;;;;;;;5.40;3.10;;;;;;;-145.18;100.00;47453.53;4948992;28;20039;-69
2021/12/30 05:45:14;;;;;;;6.37;4.07;;;;;;;-145.18;100.00;47467.22;4967677;28;20091;-69
2021/12/30 05:47:41;;;;;;;5.00;2.20;;;;;;;-145.18;100.00;47469.16;4983362;28;20089;-69
2021/12/30 05:50:08;;;;;;;6.23;2.53;;;;;;;-145.18;100.00;47453.53;4978182;28;20308;-69
2021/12/30 05:52:34;;;;;;;8.87;2.80;;;;;;;-145.18;100.00;47459.41;4971161;28;20113;-69
2021/12/30 05:54:59;;;;;;;6.07;2.67;;;;;;;-145.18;100.00;47459.41;4960749;28;20044;-70
2021/12/30 05:57:25;;;;;;;7.67;2.07;;;;;;;-145.18;100.00;47486.75;4949148;28;20071;-70
2021/12/30 05:59:50;;;;;;;2.47;1.03;;;;;;;-145.18;100.00;47476.97;4950831;28;20403;-69
2021/12/30 06:02:16;;;;;;;3.63;1.47;;;;;;;-145.18;100.00;47449.63;4995454;28;20054;-69
2021/12/30 06:04:42;;;;;;;4.77;1.23;;;;;;;-145.18;100.00;47480.88;4986382;28;20074;-69
2021/12/30 06:07:08;;;;;;;4.03;1.50;;;;;;;-145.18;100.00;47459.41;4986624;28;20046;-69
2021/12/30 06:09:34;;;;;;;5.80;2.20;;;;;;;-145.18;100.00;47451.56;4986493;28;20042;-70
2021/12/30 06:11:59;;;;;;;9.23;4.10;;;;;;;-145.18;100.00;47476.97;4986363;28;20046;-70
2021/12/30 06:14:25;;;;;;;3.93;2.17;;;;;;;-145.18;100.00;47482.84;4975328;28;20081;-70
2021/12/30 06:16:50;;;;;;;6.47;2.57;;;;;;;-145.18;100.00;47463.31;4965803;28;20043;-70
2021/12/30 06:19:16;;;;;;;8.00;3.17;;;;;;;-145.18;100.00;47467.22;4966897;28;20034;-70
2021/12/30 06:21:41;;;;;;;10.93;3.80;;;;;;;-145.18;100.00;47494.56;4957351;28;20039;-70
2021/12/30 06:24:06;;;;;;;8.50;2.17;;;;;;;-145.18;100.00;47482.84;4947894;28;20039;-70
2021/12/30 06:26:32;;;;;;;11.13;3.53;;;;;;;-145.18;100.00;47476.97;5055152;28;20037;-70
2021/12/30 06:28:57;;;;;;;9.57;3.97;;;;;;;-145.18;100.00;47494.56;5069143;28;20064;-70
2021/12/30 06:31:23;;;;;;;12.17;3.37;;;;;;;-145.18;100.00;47492.59;5067906;28;20043;-70
2021/12/30 06:33:48;;;;;;;6.90;3.50;;;;;;;-145.18;100.00;47480.88;5067981;28;20060;-70
2021/12/30 06:36:13;;;;;;;7.67;4.77;;;;;;;-145.18;100.00;47498.47;5067986;28;20397;-70
2021/12/30 06:38:39;;;;;;;5.90;3.10;;;;;;;-145.18;100.00;47461.34;5068298;28;20039;-70
2021/12/30 06:41:04;;;;;;;10.00;3.73;;;;;;;-145.18;100.00;47490.66;5068013;28;20032;-70
2021/12/30 06:43:30;;;;;;;9.87;4.43;;;;;;;-145.18;100.00;47471.13;5068182;28;20044;-70
2021/12/30 06:45:55;;;;;;;12.87;5.03;;;;;;;-145.18;100.00;47455.47;5068390;28;20037;-70
2021/12/30 06:48:21;;;;;;;13.43;6.10;;;;;;;-145.18;100.00;47441.81;5068212;28;20032;-70
2021/12/30 06:50:51;;;;;;;11.47;5.97;;;;;;;-145.18;100.00;47449.63;5068058;28;20036;-70
2021/12/30 06:53:21;;;;;;;14.57;6.67;;;;;;;-145.18;100.00;47467.22;5067853;28;20115;-70
2021/12/30 06:55:48;;;;;;;15.77;9.13;;;;;;;-145.18;100.00;47449.63;5059383;28;20560;-71
2021/12/30 06:58:13;;;;;;;15.53;9.20;;;;;;;-145.18;100.00;47434.00;5004441;28;20038;-70
2021/12/30 07:00:39;;;;;;;21.67;11.97;;;;;;;-145.18;100.00;47428.13;4969126;28;20046;-70
2021/12/30 07:03:05;;;;;;;20.73;13.23;;;;;;;-145.18;100.00;47416.41;5059956;28;20131;-70
2021/12/30 07:05:31;;;;;;;22.90;12.63;;;;;;;-145.18;100.00;47432.03;5053170;28;20051;-70
2021/12/30 07:07:56;;;;;;;24.40;13.43;;;;;;;-145.18;100.00;47434.00;4958192;28;20504;-71
2021/12/30 07:10:22;;;;;;;19.57;12.50;;;;;;;-145.18;100.00;47434.00;4962997;28;20529;-70
2021/12/30 07:12:47;;;;;;;32.40;15.47;;;;;;;-145.18;100.00;47449.63;4956711;28;20035;-71
2021/12/30 07:15:13;;;;;;;30.13;13.57;;;;;;;-145.18;100.00;47439.84;4982436;28;20121;-70
2021/12/30 07:17:38;;;;;;;30.97;16.20;;;;;;;-145.18;100.00;47453.53;5067336;28;20386;-70
2021/12/30 07:20:05;;;;;;;29.50;15.77;;;;;;;-145.18;100.00;47424.22;5046807;28;20051;-70
2021/12/30 07:22:30;;;;;;;26.90;13.73;;;;;;;-145.18;100.00;47422.28;4987434;28;20042;-70
2021/12/30 07:24:56;;;;;;;30.30;12.97;;;;;;;-145.18;100.00;47383.19;4965734;28;20050;-71
2021/12/30 07:27:22;;;;;;;20.83;10.77;;;;;;;-145.18;100.00;47394.91;5023465;28;20066;-70
2021/12/30 07:29:47;;;;;;;22.50;10.73;;;;;;;-145.18;100.00;47392.97;4987066;28;20508;-70
2021/12/30 07:32:13;;;;;;;17.90;9.53;;;;;;;-145.18;100.00;47389.06;5013370;28;20048;-70
2021/12/30 07:34:38;;;;;;;18.80;9.97;;;;;;;-145.18;100.00;47412.50;5040580;28;20051;-70
2021/12/30 07:37:03;;;;;;;20.90;9.83;;;;;;;-145.18;100.00;47435.94;5066285;28;20043;-70
2021/12/30 07:39:29;;;;;;;21.20;9.13;;;;;;;-145.18;100.00;47432.03;5064495;28;20135;-70
2021/12/30 07:41:54;;;;;;;15.40;9.43;;;;;;;-145.18;100.00;47480.88;5066276;28;20044;-71
2021/12/30 07:44:19;;;;;;;17.10;9.90;;;;;;;-145.18;100.00;47459.41;5065634;28;20041;-71
2021/12/30 07:46:45;;;;;;;16.13;10.07;;;;;;;-145.18;100.00;47476.97;5065872;28;20070;-71
2021/12/30 07:49:10;;;;;;;20.23;9.93;;;;;;;-145.18;100.00;47467.22;5065727;28;20127;-70
2021/12/30 07:51:37;;;;;;;14.00;9.87;;;;;;;-145.18;100.00;47463.31;5010014;28;20125;-70
2021/12/30 07:54:03;;;;;;;13.20;9.80;;;;;;;-145.18;100.00;47461.34;5040979;28;20588;-70
2021/12/30 07:56:28;;;;;;;18.30;9.03;;;;;;;-145.18;100.00;47443.75;4969595;28;20051;-71
2021/12/30 07:58:54;;;;;;;15.20;8.90;;;;;;;-145.18;100.00;47455.47;4987157;28;20070;-71
2021/12/30 08:01:19;;;;;;;15.23;8.90;;;;;;;-145.18;100.00;47434.00;4989083;28;20051;-70
2021/12/30 08:03:44;;;;;;;16.73;8.37;;;;;;;-145.18;100.00;47451.56;4995044;28;20054;-70
2021/12/30 08:06:10;;;;;;;14.83;7.77;;;;;;;-145.18;100.00;47445.72;4986030;28;20545;-71
2021/12/30 08:08:35;;;;;;;15.23;9.00;;;;;;;-145.18;100.00;47439.84;4965006;28;20039;-71
2021/12/30 08:11:01;;;;;;;13.10;9.20;;;;;;;-145.18;100.00;47439.84;4967963;28;20177;-70
2021/12/30 08:13:27;;;;;;;12.97;8.57;;;;;;;-145.18;100.00;47434.00;4967519;28;20224;-71
2021/12/30 08:15:53;;;;;;;19.83;9.43;;;;;;;-145.18;100.00;47406.63;4970482;28;20046;-70
2021/12/30 08:18:19;;;;;;;17.90;7.90;;;;;;;-145.18;100.00;47410.56;4965798;28;20047;-70
2021/12/30 08:20:45;;;;;;;20.27;8.97;;;;;;;-145.18;100.00;47410.56;5043803;28;20051;-71
2021/12/30 08:23:10;;;;;;;15.17;7.63;;;;;;;-145.18;100.00;47418.38;5017534;28;20044;-71
2021/12/30 08:25:36;;;;;;;15.73;8.80;;;;;;;-145.18;100.00;47414.47;4993005;28;20061;-70
2021/12/30 08:28:01;;;;;;;17.60;8.73;;;;;;;-145.18;100.00;47396.88;4986964;28;20039;-71
2021/12/30 08:30:27;;;;;;;20.37;7.83;;;;;;;-145.18;100.00;47414.47;4972598;28;20049;-70
2021/12/30 08:32:53;;;;;;;19.20;7.87;;;;;;;-145.18;100.00;47383.19;4962925;28;20054;-70
2021/12/30 08:35:22;;;;;;;17.73;7.50;;;;;;;-145.18;100.00;47394.91;4970437;28;20044;-71
2021/12/30 08:37:48;;;;;;;21.53;7.27;;;;;;;-145.18;100.00;47394.91;4969098;28;20039;-70
2021/12/30 08:40:15;;;;;;;14.43;6.80;;;;;;;-145.18;100.00;47371.47;4986618;28;20501;-70
2021/12/30 08:42:42;;;;;;;18.70;7.27;;;;;;;-145.18;100.00;47391.00;5047878;28;20040;-70
2021/12/30 08:45:08;;;;;;;30.87;13.97;;;;;;;-145.18;100.00;47369.53;5064013;28;20033;-70
2021/12/30 08:47:34;;;;;;;22.67;6.60;;;;;;;-145.18;100.00;47377.34;5064330;28;20412;-71
2021/12/30 08:50:00;;;;;;;13.37;4.90;;;;;;;-145.18;100.00;47387.09;5056066;28;20028;-70
2021/12/30 08:52:28;;;;;;;21.23;5.63;;;;;;;-145.18;100.00;47371.47;4975099;28;20065;-70
2021/12/30 08:54:56;;;;;;;26.13;5.73;;;;;;;-145.18;100.00;47369.53;5009285;28;20618;-70
2021/12/30 08:57:22;;;;;;;13.47;4.70;;;;;;;-145.18;100.00;47369.53;4995971;28;20405;-70
2021/12/30 08:59:48;;;;;;;15.53;5.20;;;;;;;-145.18;100.00;47367.56;4981061;28;20151;-70
2021/12/30 09:02:14;;;;;;;17.60;4.50;;;;;;;-145.18;100.00;47357.78;4961327;28;20043;-70
2021/12/30 09:04:42;;;;;;;23.40;5.67;;;;;;;-145.18;100.00;47365.63;5033250;28;20051;-70
2021/12/30 09:07:09;;;;;;;20.63;5.57;;;;;;;-145.18;100.00;47363.66;5065817;28;20068;-71
2021/12/30 09:09:34;;;;;;;19.67;4.83;;;;;;;-145.18;100.00;47351.94;5036766;28;20028;-70
2021/12/30 09:12:00;;;;;;;18.93;5.00;;;;;;;-145.18;100.00;47361.72;4973934;28;20069;-71
2021/12/30 09:14:25;;;;;;;25.10;6.07;;;;;;;-145.18;100.00;47359.75;4963177;28;20138;-71
2021/12/30 09:16:51;;;;;;;14.30;4.93;;;;;;;-145.18;100.00;47344.13;4963940;28;20035;-71
2021/12/30 09:19:18;;;;;;;23.30;5.53;;;;;;;-145.18;100.00;47348.03;4966050;28;20042;-71
2021/12/30 09:21:44;;;;;;;21.50;5.20;;;;;;;-145.18;100.00;47340.22;4964151;28;20043;-71
2021/12/30 09:24:11;;;;;;;18.23;5.10;;;;;;;-145.18;100.00;47328.50;4990914;28;20495;-71
2021/12/30 09:26:37;;;;;;;18.70;5.50;;;;;;;-145.18;100.00;47328.50;4961268;28;20040;-71
2021/12/30 09:29:10;;;;;;;19.87;4.53;;;;;;;-145.18;100.00;47336.31;4969713;28;20078;-71
2021/12/30 09:31:41;;;;;;;20.00;5.93;;;;;;;-145.18;100.00;47330.44;4956031;28;20590;-71
2021/12/30 09:34:07;;;;;;;12.30;4.10;;;;;;;-145.18;100.00;47332.41;4963305;28;20751;-70
2021/12/30 09:36:33;;;;;;;19.43;4.03;;;;;;;-145.18;100.00;47312.88;4966274;28;20050;-70
2021/12/30 09:38:59;;;;;;;15.30;4.60;;;;;;;-145.18;100.00;47320.69;5026573;28;20486;-70
2021/12/30 09:41:24;;;;;;;12.53;3.70;;;;;;;-145.18;100.00;47322.63;5068716;28;20558;-70
2021/12/30 09:43:50;;;;;;;17.13;3.80;;;;;;;-145.18;100.00;47322.63;5068231;28;20040;-71
2021/12/30 09:46:17;;;;;;;17.57;4.47;;;;;;;-145.18;100.00;47324.59;5069257;28;20036;-71
2021/12/30 09:48:43;;;;;;;16.43;4.67;;;;;;;-145.18;100.00;47316.78;5068287;28;20036;-71
2021/12/30 09:51:09;;;;;;;14.40;3.63;;;;;;;-145.18;100.00;47305.06;5067445;28;20520;-70
2021/12/30 09:53:34;;;;;;;22.43;4.53;;;;;;;-145.18;100.00;47330.44;5068401;28;20036;-70
2021/12/30 09:56:00;;;;;;;22.53;5.57;;;;;;;-145.18;100.00;47338.25;5068702;28;20037;-70
2021/12/30 09:58:29;;;;;;;24.00;4.87;;;;;;;-145.18;100.00;47324.59;5068310;28;20054;-71
2021/12/30 10:00:55;;;;;;;18.40;4.87;;;;;;;-145.18;100.00;47342.16;5068648;28;20036;-71
2021/12/30 10:03:21;;;;;;;15.07;3.70;;;;;;;-145.18;100.00;47322.63;5069048;28;20045;-71
2021/12/30 10:05:47;;;;;;;18.87;5.00;;;;;;;-145.18;100.00;47332.41;5060839;28;20048;-71
2021/12/30 10:08:15;;;;;;;17.53;5.17;;;;;;;-145.18;100.00;47328.50;4994969;28;20494;-70
2021/12/30 10:10:44;;;;;;;27.40;5.60;;;;;;;-145.18;100.00;47344.13;5067962;28;20049;-71
2021/12/30 10:13:29;;;;;;;14.50;3.97;;;;;;;-145.18;100.00;47338.25;5067896;28;20390;-71
2021/12/30 10:15:58;;;;;;;22.57;4.23;;;;;;;-145.18;100.00;47342.16;5068478;28;20051;-71
2021/12/30 10:18:25;;;;;;;22.30;5.10;;;;;;;-145.18;100.00;47336.31;5067848;28;20270;-71
2021/12/30 10:20:52;;;;;;;24.07;4.50;;;;;;;-145.18;100.00;47328.50;5067867;28;20494;-71
2021/12/30 10:23:21;;;;;;;16.93;4.27;;;;;;;-145.18;100.00;47330.44;5068176;28;20047;-71
2021/12/30 10:25:50;;;;;;;35.00;5.27;;;;;;;-145.18;100.00;47359.75;5068006;28;20041;-71
2021/12/30 10:28:31;;;;;;;17.33;3.70;;;;;;;-145.18;100.00;47324.59;5067726;28;20037;-72
2021/12/30 10:31:19;;;;;;;18.87;3.37;;;;;;;-145.18;100.00;47340.22;5067233;28;20040;-71
2021/12/30 10:34:11;;;;;;;13.87;3.20;;;;;;;-145.18;100.00;47334.34;5067289;28;20114;-71
2021/12/30 10:36:39;;;;;;;18.90;4.27;;;;;;;-145.18;100.00;47328.50;5068029;28;20065;-71
2021/12/30 10:39:27;;;;;;;17.93;3.77;;;;;;;-145.18;100.00;47336.31;5067416;28;20079;-71
2021/12/30 10:42:16;;;;;;;24.60;4.40;;;;;;;-145.18;100.00;47346.06;5067842;28;20056;-71
2021/12/30 10:44:52;;;;;;;22.20;4.67;;;;;;;-145.18;100.00;47340.22;5067607;28;20050;-71
2021/12/30 10:47:24;;;;;;;26.60;5.90;;;;;;;-145.18;100.00;47340.22;5067589;28;20125;-71
2021/12/30 10:50:19;;;;;;;14.77;3.17;;;;;;;-145.18;100.00;47336.31;5011357;28;20058;-71
2021/12/30 10:52:50;;;;;;;17.80;3.50;;;;;;;-145.18;100.00;47322.63;5065111;28;20040;-71
2021/12/30 10:55:17;;;;;;;17.70;3.33;;;;;;;-145.18;100.00;47328.50;5067763;28;20048;-71
2021/12/30 10:57:43;;;;;;;22.30;3.70;;;;;;;-145.18;100.00;47338.25;5067002;28;20060;-71